Time;durP1;ratioP1;P1;durP2;ratioP2;P2;SDS_P1;SDS_P2;PMS_P1;PMS_P2;Temp;Humidity;BMP_temperature;BMP_pressure;BME280_temperature;BME280_humidity;BME280_pressure;Samples;Min_cycle;Max_cycle;Signal;HPM_P1;HPM_P2
2021/12/27 00:01:55;;;;;;;6.05;5.60;;;4.40;99.90;;;;;;5022433;28;20215;-76
2021/12/27 00:04:22;;;;;;;5.82;5.43;;;4.40;99.90;;;;;;5024492;28;20261;-79
2021/12/27 00:06:50;;;;;;;6.95;6.35;;;4.50;99.90;;;;;;5020723;28;20207;-75
2021/12/27 00:09:17;;;;;;;6.88;6.28;;;4.40;99.90;;;;;;5020257;28;20207;-76
2021/12/27 00:11:45;;;;;;;6.60;6.00;;;4.40;99.90;;;;;;5027432;28;20215;-77
2021/12/27 00:14:12;;;;;;;5.70;5.20;;;4.40;99.90;;;;;;5026390;28;20196;-78
2021/12/27 00:16:39;;;;;;;6.05;5.55;;;4.40;99.90;;;;;;5020959;28;20216;-75
2021/12/27 00:19:06;;;;;;;6.43;5.93;;;4.40;99.90;;;;;;5020631;28;20791;-77
2021/12/27 00:21:33;;;;;;;6.28;5.78;;;4.40;99.90;;;;;;5026113;28;20218;-77
2021/12/27 00:24:01;;;;;;;5.90;5.45;;;4.40;99.90;;;;;;5022243;28;20208;-75
2021/12/27 00:26:28;;;;;;;5.35;4.95;;;4.40;99.90;;;;;;5020038;28;20292;-76
2021/12/27 00:28:55;;;;;;;5.43;4.93;;;4.40;99.90;;;;;;5023907;28;20204;-75
2021/12/27 00:31:22;;;;;;;5.68;5.28;;;4.40;99.90;;;;;;5022117;28;20214;-78
2021/12/27 00:33:50;;;;;;;5.93;5.47;;;4.40;99.90;;;;;;5022105;28;20258;-75
2021/12/27 00:36:17;;;;;;;5.57;5.07;;;4.40;99.90;;;;;;5022788;28;20220;-75
2021/12/27 00:38:44;;;;;;;5.95;5.55;;;4.40;99.90;;;;;;5023202;28;20195;-76
2021/12/27 00:41:13;;;;;;;6.00;5.50;;;4.40;99.90;;;;;;5015731;28;20207;-78
2021/12/27 00:43:40;;;;;;;6.70;6.10;;;4.30;99.90;;;;;;5024274;28;20238;-75
2021/12/27 00:46:07;;;;;;;6.18;5.68;;;4.40;99.90;;;;;;5021624;28;20227;-73
2021/12/27 00:48:34;;;;;;;5.70;5.20;;;4.30;99.90;;;;;;5022429;28;20199;-75
2021/12/27 00:51:02;;;;;;;6.47;5.95;;;4.40;99.90;;;;;;5023658;28;20905;-76
2021/12/27 00:53:29;;;;;;;5.85;5.35;;;4.40;99.90;;;;;;5018479;28;20826;-77
2021/12/27 00:55:56;;;;;;;6.38;5.88;;;4.40;99.90;;;;;;5020914;28;20250;-78
2021/12/27 00:58:25;;;;;;;6.68;5.90;;;4.40;99.90;;;;;;5018238;28;20682;-75
2021/12/27 01:00:52;;;;;;;5.65;5.15;;;4.40;99.90;;;;;;5020483;28;20192;-78
2021/12/27 01:03:20;;;;;;;5.30;4.90;;;4.40;99.90;;;;;;5021579;28;20219;-75
2021/12/27 01:05:47;;;;;;;5.82;5.32;;;4.40;99.90;;;;;;5030234;28;20243;-77
2021/12/27 01:08:15;;;;;;;5.28;4.88;;;4.40;99.90;;;;;;5022751;28;20195;-76
2021/12/27 01:11:22;;;;;;;4.72;4.35;;;4.40;99.90;;;;;;5019252;28;20227;-74
2021/12/27 01:14:02;;;;;;;4.75;4.35;;;4.40;99.90;;;;;;5021813;28;20199;-76
2021/12/27 01:16:29;;;;;;;5.05;4.65;;;4.40;99.90;;;;;;5023421;28;20219;-74
2021/12/27 01:18:57;;;;;;;5.45;4.97;;;4.40;99.90;;;;;;5022349;28;20256;-75
2021/12/27 01:21:25;;;;;;;5.35;4.95;;;4.40;99.90;;;;;;5022269;28;20254;-76
2021/12/27 01:23:56;;;;;;;5.07;4.68;;;4.40;99.90;;;;;;5021519;28;20215;-76
2021/12/27 01:26:25;;;;;;;5.20;4.75;;;4.40;99.90;;;;;;5023633;28;20220;-75
2021/12/27 01:28:56;;;;;;;5.20;4.80;;;4.50;99.90;;;;;;5022643;28;20199;-77
2021/12/27 01:31:24;;;;;;;5.10;4.70;;;4.50;99.90;;;;;;5022144;28;20230;-75
2021/12/27 01:33:51;;;;;;;5.30;4.90;;;4.50;99.90;;;;;;5022737;28;20210;-77
2021/12/27 01:36:19;;;;;;;5.50;5.10;;;4.50;99.90;;;;;;5022063;28;20223;-76
2021/12/27 01:38:48;;;;;;;5.15;4.75;;;4.50;99.90;;;;;;5019956;28;20610;-76
2021/12/27 01:41:16;;;;;;;4.55;4.25;;;4.50;99.90;;;;;;5020526;28;20277;-75
2021/12/27 01:43:44;;;;;;;4.68;4.38;;;4.50;99.90;;;;;;5021795;28;20238;-76
2021/12/27 01:46:15;;;;;;;4.25;3.92;;;4.50;99.90;;;;;;5024803;28;20285;-76
2021/12/27 01:48:45;;;;;;;4.70;4.30;;;4.50;99.90;;;;;;5021992;28;20679;-74
2021/12/27 01:51:14;;;;;;;4.70;4.40;;;4.50;99.90;;;;;;5020655;28;20210;-75
2021/12/27 01:53:43;;;;;;;4.80;4.50;;;4.50;99.90;;;;;;5020883;28;20585;-75
2021/12/27 01:56:12;;;;;;;4.70;4.30;;;4.50;99.90;;;;;;5021407;28;20239;-75
2021/12/27 01:58:39;;;;;;;4.53;4.20;;;4.60;99.90;;;;;;5020378;28;20322;-76
2021/12/27 02:01:09;;;;;;;4.15;3.85;;;4.60;99.90;;;;;;5026572;28;20199;-75
2021/12/27 02:03:40;;;;;;;4.22;3.92;;;4.60;99.90;;;;;;5017944;28;20644;-75
2021/12/27 02:06:08;;;;;;;4.60;4.20;;;4.60;99.90;;;;;;5019410;28;20215;-76
2021/12/27 02:08:37;;;;;;;4.00;3.70;;;4.60;99.90;;;;;;5024816;28;20226;-74
2021/12/27 02:11:05;;;;;;;4.85;4.32;;;4.60;99.90;;;;;;5017608;28;20196;-75
2021/12/27 02:13:32;;;;;;;4.03;3.83;;;4.60;99.90;;;;;;5020325;28;20200;-75
2021/12/27 02:15:59;;;;;;;4.60;4.30;;;4.60;99.90;;;;;;5022395;28;20227;-77
2021/12/27 02:18:27;;;;;;;4.15;3.85;;;4.60;99.90;;;;;;5018503;28;20199;-75
2021/12/27 02:20:55;;;;;;;4.35;4.05;;;4.70;99.90;;;;;;5019549;28;20249;-75
2021/12/27 02:23:23;;;;;;;4.45;4.15;;;4.70;99.90;;;;;;5023429;28;21243;-75
2021/12/27 02:25:51;;;;;;;4.70;4.35;;;4.70;99.90;;;;;;5025178;28;20223;-74
2021/12/27 02:28:20;;;;;;;4.40;4.10;;;4.70;99.90;;;;;;5025474;28;20204;-76
2021/12/27 02:30:49;;;;;;;4.65;4.35;;;4.70;99.90;;;;;;5023981;28;20685;-77
2021/12/27 02:33:16;;;;;;;4.40;4.10;;;4.70;99.90;;;;;;5020334;28;20203;-74
2021/12/27 02:35:44;;;;;;;4.47;4.18;;;4.70;99.90;;;;;;5024029;28;20228;-75
2021/12/27 02:38:16;;;;;;;4.75;4.45;;;4.70;99.90;;;;;;5025908;28;20291;-76
2021/12/27 02:40:44;;;;;;;4.15;3.85;;;4.70;99.90;;;;;;5026164;28;20202;-76
2021/12/27 02:43:13;;;;;;;4.82;4.43;;;4.60;99.90;;;;;;5027113;28;20631;-75
2021/12/27 02:45:43;;;;;;;4.38;4.03;;;4.60;99.90;;;;;;5022814;28;20219;-73
2021/12/27 02:48:11;;;;;;;5.00;4.50;;;4.60;99.90;;;;;;5025120;28;20199;-75
2021/12/27 02:50:39;;;;;;;4.57;4.25;;;4.60;99.90;;;;;;5026825;28;20199;-75
2021/12/27 02:53:07;;;;;;;4.80;4.40;;;4.60;99.90;;;;;;5021804;28;20206;-75
2021/12/27 02:55:37;;;;;;;4.57;4.18;;;4.60;99.90;;;;;;5028049;28;20277;-74
2021/12/27 02:58:04;;;;;;;4.70;4.40;;;4.70;99.90;;;;;;5020036;28;20199;-76
2021/12/27 03:00:34;;;;;;;4.65;4.25;;;4.70;99.90;;;;;;5023877;28;20192;-75
2021/12/27 03:03:01;;;;;;;4.68;4.38;;;4.70;99.90;;;;;;5021121;28;20223;-76
2021/12/27 03:05:29;;;;;;;5.15;4.60;;;4.60;99.90;;;;;;5018498;28;20215;-75
2021/12/27 03:07:58;;;;;;;4.97;4.57;;;4.60;99.90;;;;;;5018549;28;20261;-74
2021/12/27 03:10:27;;;;;;;4.40;4.03;;;4.60;99.90;;;;;;5019029;28;20195;-76
2021/12/27 03:12:57;;;;;;;5.00;4.60;;;4.60;99.90;;;;;;5019730;28;20212;-79
2021/12/27 03:15:25;;;;;;;4.80;4.47;;;4.60;99.90;;;;;;5019153;28;20214;-75
2021/12/27 03:17:53;;;;;;;4.47;4.18;;;4.60;99.90;;;;;;5017294;28;20713;-78
2021/12/27 03:20:23;;;;;;;4.57;4.28;;;4.60;99.90;;;;;;5019043;28;20199;-75
2021/12/27 03:22:50;;;;;;;4.78;4.38;;;4.60;99.90;;;;;;5017489;28;20204;-76
2021/12/27 03:25:19;;;;;;;4.80;4.47;;;4.60;99.90;;;;;;5022735;28;20215;-75
2021/12/27 03:27:47;;;;;;;4.53;4.13;;;4.60;99.90;;;;;;5020798;28;20199;-75
2021/12/27 03:30:17;;;;;;;4.88;4.47;;;4.70;99.90;;;;;;5014034;28;20215;-77
2021/12/27 03:32:45;;;;;;;4.57;4.22;;;4.70;99.90;;;;;;5019040;28;20281;-74
2021/12/27 03:35:15;;;;;;;4.97;4.57;;;4.60;99.90;;;;;;5018576;28;20211;-75
2021/12/27 03:37:45;;;;;;;5.30;4.90;;;4.60;99.90;;;;;;5021189;28;20295;-75
2021/12/27 03:40:15;;;;;;;5.38;4.93;;;4.60;99.90;;;;;;5015807;28;20203;-75
2021/12/27 03:42:42;;;;;;;5.03;4.72;;;4.50;99.90;;;;;;5020413;28;21106;-76
2021/12/27 03:45:10;;;;;;;7.70;6.07;;;4.50;99.90;;;;;;5020461;28;20709;-76
2021/12/27 03:47:39;;;;;;;6.38;5.78;;;4.50;99.90;;;;;;5021881;28;20816;-76
2021/12/27 03:50:07;;;;;;;6.25;5.65;;;4.40;99.90;;;;;;5024749;28;20262;-75
2021/12/27 03:52:34;;;;;;;5.75;5.25;;;4.30;99.90;;;;;;5015671;28;20200;-77
2021/12/27 03:55:01;;;;;;;5.68;5.18;;;4.20;99.90;;;;;;5018436;28;20281;-75
2021/12/27 03:57:28;;;;;;;6.38;5.88;;;4.20;99.90;;;;;;5018726;28;20732;-76
2021/12/27 04:00:15;;;;;;;6.60;6.00;;;4.20;99.90;;;;;;5020807;28;20200;-75
2021/12/27 04:02:44;;;;;;;6.53;6.03;;;4.20;99.90;;;;;;5022629;28;20253;-75
2021/12/27 04:05:11;;;;;;;5.47;5.07;;;4.10;99.90;;;;;;5019892;28;20220;-76
2021/12/27 04:07:39;;;;;;;6.03;5.53;;;4.10;99.90;;;;;;5013917;28;20262;-76
2021/12/27 04:10:09;;;;;;;6.38;5.80;;;4.10;99.90;;;;;;5018597;28;20286;-76
2021/12/27 04:12:37;;;;;;;5.45;5.05;;;4.20;99.90;;;;;;5017890;28;20246;-76
2021/12/27 04:15:06;;;;;;;6.15;5.65;;;4.20;99.90;;;;;;5020223;28;20229;-74
2021/12/27 04:17:33;;;;;;;5.90;5.40;;;4.20;99.90;;;;;;5020126;28;20192;-75
2021/12/27 04:20:01;;;;;;;5.70;5.20;;;4.30;99.90;;;;;;5019344;28;20200;-75
2021/12/27 04:22:28;;;;;;;7.18;6.55;;;4.30;99.90;;;;;;5017520;28;20204;-76
2021/12/27 04:24:55;;;;;;;5.93;5.43;;;4.30;99.90;;;;;;5018368;28;20281;-75
2021/12/27 04:27:22;;;;;;;6.20;5.70;;;4.30;99.90;;;;;;5017774;28;20200;-77
2021/12/27 04:29:50;;;;;;;5.82;5.32;;;4.30;99.90;;;;;;5016045;28;20204;-74
2021/12/27 04:32:17;;;;;;;5.38;4.95;;;4.30;99.90;;;;;;5015445;28;20199;-74
2021/12/27 04:34:44;;;;;;;5.90;5.40;;;4.30;99.90;;;;;;5017916;28;20216;-75
2021/12/27 04:37:12;;;;;;;5.72;5.22;;;4.30;99.90;;;;;;5018715;28;20590;-74
2021/12/27 04:39:39;;;;;;;6.57;5.97;;;4.30;99.90;;;;;;5018151;28;20203;-78
2021/12/27 04:42:08;;;;;;;6.07;5.57;;;4.30;99.90;;;;;;5021288;28;20204;-77
2021/12/27 04:44:35;;;;;;;6.30;5.70;;;4.30;99.90;;;;;;5022580;28;20228;-77
2021/12/27 04:47:04;;;;;;;6.65;6.05;;;4.30;99.90;;;;;;5018174;28;20200;-75
2021/12/27 04:49:31;;;;;;;5.80;5.30;;;4.30;99.90;;;;;;5017109;28;20196;-77
2021/12/27 04:51:58;;;;;;;6.63;5.53;;;4.30;99.90;;;;;;5018681;28;20577;-75
2021/12/27 04:54:26;;;;;;;5.53;5.13;;;4.30;99.90;;;;;;5018434;28;20197;-75
2021/12/27 04:56:53;;;;;;;5.28;4.78;;;4.30;99.90;;;;;;5020611;28;20249;-76
2021/12/27 04:59:20;;;;;;;6.10;5.60;;;4.30;99.90;;;;;;5019658;28;20947;-76
2021/12/27 05:01:47;;;;;;;5.82;5.32;;;4.30;99.90;;;;;;5019097;28;20261;-75
2021/12/27 05:04:14;;;;;;;6.00;5.40;;;4.30;99.90;;;;;;5016094;28;20215;-76
2021/12/27 05:06:41;;;;;;;4.90;4.50;;;4.30;99.90;;;;;;5017342;28;20212;-77
2021/12/27 05:09:08;;;;;;;5.03;4.63;;;4.30;99.90;;;;;;5016532;28;20203;-77
2021/12/27 05:11:37;;;;;;;5.57;5.15;;;4.30;99.90;;;;;;5017666;28;20243;-75
2021/12/27 05:14:04;;;;;;;5.93;5.53;;;4.30;99.90;;;;;;5015861;28;20203;-78
2021/12/27 05:16:31;;;;;;;5.60;5.10;;;4.30;99.90;;;;;;5016569;28;20262;-75
2021/12/27 05:18:58;;;;;;;5.40;5.00;;;4.30;99.90;;;;;;5015525;28;20207;-76
2021/12/27 05:21:25;;;;;;;5.18;4.78;;;4.30;99.90;;;;;;5017704;28;20200;-78
2021/12/27 05:23:53;;;;;;;5.50;5.10;;;4.30;99.90;;;;;;5014020;28;20216;-75
2021/12/27 05:26:20;;;;;;;5.63;5.13;;;4.30;99.90;;;;;;5016873;28;20215;-77
2021/12/27 05:28:49;;;;;;;5.70;5.30;;;4.30;99.90;;;;;;5013008;28;20196;-78
2021/12/27 05:31:16;;;;;;;5.65;5.15;;;4.30;99.90;;;;;;5017928;28;20398;-76
2021/12/27 05:33:43;;;;;;;5.43;5.03;;;4.30;99.90;;;;;;5017782;28;20254;-75
2021/12/27 05:36:12;;;;;;;5.68;5.18;;;4.30;99.90;;;;;;5020759;28;20219;-76
2021/12/27 05:38:39;;;;;;;5.95;5.45;;;4.30;99.90;;;;;;5021092;28;20242;-75
2021/12/27 05:41:07;;;;;;;5.32;4.93;;;4.20;99.90;;;;;;5016004;28;20199;-76
2021/12/27 05:43:34;;;;;;;5.60;5.10;;;4.30;99.90;;;;;;5015606;28;20257;-75
2021/12/27 05:46:02;;;;;;;5.47;4.97;;;4.20;99.90;;;;;;5020763;28;20223;-76
2021/12/27 05:48:30;;;;;;;5.47;5.07;;;4.30;99.90;;;;;;5014144;28;22201;-79
2021/12/27 05:50:57;;;;;;;5.45;5.05;;;4.30;99.90;;;;;;5013333;28;20720;-77
2021/12/27 05:53:24;;;;;;;5.25;4.88;;;4.30;99.90;;;;;;5020176;28;20250;-78
2021/12/27 05:55:52;;;;;;;5.90;5.40;;;4.30;99.90;;;;;;5020390;28;20919;-77
2021/12/27 05:58:19;;;;;;;5.32;4.93;;;4.30;99.90;;;;;;5015382;28;20815;-75
2021/12/27 06:00:47;;;;;;;5.30;4.90;;;4.30;99.90;;;;;;5022392;28;20210;-77
2021/12/27 06:03:15;;;;;;;5.18;4.82;;;4.30;99.90;;;;;;5023488;28;20290;-76
2021/12/27 06:05:42;;;;;;;6.20;5.70;;;4.40;99.90;;;;;;5026110;28;20705;-75
2021/12/27 06:08:09;;;;;;;7.38;6.63;;;4.40;99.90;;;;;;5020034;28;20211;-75
2021/12/27 06:10:37;;;;;;;6.00;5.50;;;4.40;99.90;;;;;;5017150;28;20202;-76
2021/12/27 06:13:05;;;;;;;6.30;5.75;;;4.40;99.90;;;;;;5021710;28;20203;-75
2021/12/27 06:15:32;;;;;;;4.97;4.53;;;4.40;99.90;;;;;;5022055;28;20645;-77
2021/12/27 06:17:59;;;;;;;7.28;5.75;;;4.40;99.90;;;;;;5021615;28;20261;-78
2021/12/27 06:20:27;;;;;;;5.30;4.80;;;4.40;99.90;;;;;;5022307;28;20299;-76
2021/12/27 06:22:57;;;;;;;5.25;4.85;;;4.40;99.90;;;;;;5020650;28;20204;-76
2021/12/27 06:25:24;;;;;;;4.45;4.15;;;4.40;99.90;;;;;;5018393;28;20290;-75
2021/12/27 06:27:51;;;;;;;5.07;4.68;;;4.40;99.90;;;;;;5023148;28;20204;-77
2021/12/27 06:30:20;;;;;;;5.32;4.93;;;4.50;99.90;;;;;;5021819;28;20203;-74
2021/12/27 06:32:47;;;;;;;5.47;4.97;;;4.40;99.90;;;;;;5022435;28;20203;-76
2021/12/27 06:35:15;;;;;;;5.28;4.88;;;4.40;99.90;;;;;;5020822;28;20686;-79
2021/12/27 06:37:45;;;;;;;5.13;4.72;;;4.40;99.90;;;;;;5024031;28;20200;-77
2021/12/27 06:40:14;;;;;;;4.78;4.47;;;4.40;99.90;;;;;;5022729;28;20199;-77
2021/12/27 06:42:41;;;;;;;4.45;4.13;;;4.40;99.90;;;;;;5023563;28;20203;-78
2021/12/27 06:45:09;;;;;;;5.25;4.85;;;4.40;99.90;;;;;;5022504;28;20219;-75
2021/12/27 06:47:36;;;;;;;4.70;4.40;;;4.40;99.90;;;;;;5021938;28;20203;-76
2021/12/27 06:50:04;;;;;;;4.68;4.32;;;4.40;99.90;;;;;;5019293;28;20196;-73
2021/12/27 06:52:32;;;;;;;5.35;4.95;;;4.40;99.90;;;;;;5020484;28;20203;-78
2021/12/27 06:55:00;;;;;;;5.32;4.82;;;4.40;99.90;;;;;;5022655;28;20313;-77
2021/12/27 06:57:27;;;;;;;4.68;4.38;;;4.50;99.90;;;;;;5022159;28;20200;-76
2021/12/27 06:59:54;;;;;;;6.00;5.50;;;4.40;99.90;;;;;;5023597;28;20206;-80
2021/12/27 07:02:21;;;;;;;4.97;4.57;;;4.40;99.90;;;;;;5021557;28;21087;-76
2021/12/27 07:04:48;;;;;;;4.68;4.38;;;4.40;99.90;;;;;;5019427;28;20613;-75
2021/12/27 07:07:15;;;;;;;4.57;4.28;;;4.50;99.90;;;;;;5020667;28;20253;-76
2021/12/27 07:09:43;;;;;;;4.70;4.30;;;4.50;99.90;;;;;;5018387;28;20183;-76
2021/12/27 07:12:12;;;;;;;4.95;4.63;;;4.40;99.90;;;;;;5021870;28;20199;-76
2021/12/27 07:14:40;;;;;;;4.63;4.32;;;4.50;99.90;;;;;;5028726;28;20204;-78
2021/12/27 07:17:07;;;;;;;5.47;5.07;;;4.50;99.90;;;;;;5021318;28;20211;-74
2021/12/27 07:19:34;;;;;;;5.45;5.05;;;4.40;99.90;;;;;;5021708;28;20203;-74
2021/12/27 07:22:01;;;;;;;4.93;4.53;;;4.40;99.90;;;;;;5019100;28;20769;-76
2021/12/27 07:24:28;;;;;;;5.00;4.60;;;4.40;99.90;;;;;;5024693;28;20277;-78
2021/12/27 07:26:55;;;;;;;4.80;4.40;;;4.50;99.90;;;;;;5018260;28;20194;-74
2021/12/27 07:29:24;;;;;;;5.47;5.07;;;4.50;99.90;;;;;;5020053;28;20203;-77
2021/12/27 07:31:51;;;;;;;5.35;4.95;;;4.50;99.90;;;;;;5018068;28;20207;-77
2021/12/27 07:34:19;;;;;;;6.60;6.00;;;4.50;99.90;;;;;;5025434;28;20246;-76
2021/12/27 07:36:47;;;;;;;5.72;5.28;;;4.50;99.90;;;;;;5021018;28;20249;-75
2021/12/27 07:39:15;;;;;;;6.07;5.60;;;4.50;99.90;;;;;;5023628;28;20938;-76
2021/12/27 07:41:42;;;;;;;5.97;5.47;;;4.40;99.90;;;;;;5019841;28;20700;-76
2021/12/27 07:44:10;;;;;;;6.28;5.68;;;4.40;99.90;;;;;;5019119;28;20204;-76
2021/12/27 07:46:40;;;;;;;6.75;6.05;;;4.40;99.90;;;;;;5021818;28;20234;-77
2021/12/27 07:49:08;;;;;;;7.13;6.53;;;4.50;99.90;;;;;;5017176;28;20678;-75
2021/12/27 07:51:35;;;;;;;7.32;6.63;;;4.50;99.90;;;;;;5021554;28;20219;-78
2021/12/27 07:54:03;;;;;;;7.93;7.20;;;4.50;99.90;;;;;;5018805;28;20208;-75
2021/12/27 07:56:30;;;;;;;9.30;8.40;;;4.60;99.90;;;;;;5027454;28;20235;-76
2021/12/27 07:58:57;;;;;;;10.98;9.80;;;4.60;99.90;;;;;;5017661;28;20242;-76
2021/12/27 08:01:25;;;;;;;14.15;11.85;;;4.70;99.90;;;;;;5020052;28;20199;-80
2021/12/27 08:03:53;;;;;;;10.95;9.52;;;4.70;99.90;;;;;;5019788;28;20621;-75
2021/12/27 08:06:20;;;;;;;9.75;8.75;;;4.80;99.90;;;;;;5021085;28;20310;-76
2021/12/27 08:08:47;;;;;;;9.18;7.50;;;4.80;99.90;;;;;;5022145;28;20248;-78
2021/12/27 08:11:14;;;;;;;7.75;7.05;;;4.80;99.90;;;;;;5018328;28;20226;-76
2021/12/27 08:13:42;;;;;;;10.40;9.35;;;4.90;99.90;;;;;;5018252;28;20200;-75
2021/12/27 08:16:09;;;;;;;9.98;8.98;;;4.90;99.90;;;;;;5023853;28;20235;-76
2021/12/27 08:18:36;;;;;;;8.25;7.35;;;4.90;99.90;;;;;;5028676;28;20191;-75
2021/12/27 08:21:05;;;;;;;7.70;7.00;;;4.90;99.90;;;;;;5022297;28;20192;-77
2021/12/27 08:23:32;;;;;;;7.55;6.85;;;4.90;99.90;;;;;;5017460;28;20245;-72
2021/12/27 08:25:59;;;;;;;7.00;6.38;;;5.00;99.90;;;;;;5015631;28;20231;-75
2021/12/27 08:28:26;;;;;;;6.55;5.97;;;4.90;99.90;;;;;;5018747;28;20191;-75
2021/12/27 08:30:53;;;;;;;6.47;5.88;;;4.90;99.90;;;;;;5017898;28;20209;-75
2021/12/27 08:33:20;;;;;;;7.05;6.35;;;4.90;99.90;;;;;;5017769;28;20203;-75
2021/12/27 08:35:47;;;;;;;5.80;5.30;;;5.00;99.90;;;;;;5015583;28;20235;-73
2021/12/27 08:38:18;;;;;;;7.03;6.43;;;4.90;99.90;;;;;;5020364;28;20195;-76
2021/12/27 08:40:45;;;;;;;7.03;6.30;;;4.90;99.90;;;;;;5016537;28;20283;-75
2021/12/27 08:43:12;;;;;;;6.32;5.82;;;5.00;99.90;;;;;;5021140;28;20204;-75
2021/12/27 08:45:39;;;;;;;6.85;6.15;;;4.90;99.90;;;;;;5015277;28;20232;-77
2021/12/27 08:48:06;;;;;;;6.20;5.70;;;4.90;99.90;;;;;;5022162;28;20612;-75
2021/12/27 08:50:33;;;;;;;6.30;5.75;;;5.00;99.90;;;;;;5016944;28;20201;-75
2021/12/27 08:53:00;;;;;;;6.72;6.05;;;5.00;99.90;;;;;;5016791;28;20200;-76
2021/12/27 08:55:29;;;;;;;7.03;6.43;;;5.00;99.90;;;;;;5022174;28;20273;-74
2021/12/27 08:57:56;;;;;;;7.60;6.90;;;5.10;99.90;;;;;;5017472;28;20686;-74
2021/12/27 09:00:23;;;;;;;7.25;6.47;;;5.10;99.90;;;;;;5018728;28;20195;-76
2021/12/27 09:02:50;;;;;;;7.05;6.35;;;5.10;99.90;;;;;;5014969;28;20562;-76
2021/12/27 09:05:17;;;;;;;8.93;8.13;;;5.20;99.90;;;;;;5018292;28;20913;-75
2021/12/27 09:07:44;;;;;;;11.52;10.43;;;5.20;99.90;;;;;;5014572;28;20413;-72
2021/12/27 09:10:12;;;;;;;10.65;9.55;;;5.20;99.90;;;;;;5015074;28;20208;-76
2021/12/27 09:12:40;;;;;;;9.88;8.90;;;5.20;99.90;;;;;;5021615;28;20195;-75
2021/12/27 09:15:09;;;;;;;9.68;8.77;;;5.30;99.90;;;;;;5015830;28;20215;-74
2021/12/27 09:17:36;;;;;;;8.73;7.93;;;5.20;99.90;;;;;;5017347;28;20199;-75
2021/12/27 09:20:05;;;;;;;8.48;7.60;;;5.30;99.90;;;;;;5013831;28;20221;-76
2021/12/27 09:22:32;;;;;;;9.68;8.77;;;5.30;99.90;;;;;;5016409;28;20249;-75
2021/12/27 09:24:59;;;;;;;8.70;7.90;;;5.30;99.90;;;;;;5015007;28;20220;-75
2021/12/27 09:27:26;;;;;;;8.82;7.93;;;5.40;99.90;;;;;;5017762;28;20208;-75
2021/12/27 09:29:54;;;;;;;7.95;7.15;;;5.40;99.90;;;;;;5015980;28;20888;-75
2021/12/27 09:32:23;;;;;;;8.35;7.65;;;5.50;99.90;;;;;;5013850;28;20212;-74
2021/12/27 09:34:50;;;;;;;8.48;7.55;;;5.60;99.90;;;;;;5013406;28;20227;-75
2021/12/27 09:37:17;;;;;;;8.10;7.40;;;5.60;99.90;;;;;;5017483;28;20210;-74
2021/12/27 09:39:44;;;;;;;8.23;7.53;;;5.70;99.90;;;;;;5021237;28;20253;-74
2021/12/27 09:42:12;;;;;;;7.80;7.20;;;5.70;99.90;;;;;;5022856;28;20208;-74
2021/12/27 09:44:39;;;;;;;8.05;6.90;;;5.70;99.90;;;;;;5016890;28;20222;-73
2021/12/27 09:47:07;;;;;;;7.88;7.18;;;5.80;99.90;;;;;;5014003;28;20343;-74
2021/12/27 09:49:34;;;;;;;7.07;6.47;;;5.80;99.90;;;;;;5022090;28;20206;-74
2021/12/27 09:52:02;;;;;;;9.85;7.63;;;5.80;99.90;;;;;;5018643;28;20249;-75
2021/12/27 09:54:29;;;;;;;6.80;6.20;;;5.70;99.90;;;;;;5020549;28;20938;-73
2021/12/27 09:56:57;;;;;;;6.90;6.30;;;5.70;99.90;;;;;;5022249;28;20189;-71
2021/12/27 09:59:24;;;;;;;6.25;5.75;;;5.70;99.90;;;;;;5016533;28;20255;-74
2021/12/27 10:01:52;;;;;;;6.85;6.25;;;5.90;99.90;;;;;;5014737;28;20203;-75
2021/12/27 10:04:21;;;;;;;5.53;5.03;;;6.10;99.90;;;;;;5017572;28;20325;-75
2021/12/27 10:06:48;;;;;;;5.82;5.35;;;6.50;99.90;;;;;;5015870;28;20219;-75
2021/12/27 10:09:16;;;;;;;11.15;9.68;;;6.70;99.90;;;;;;5022458;28;20196;-74
2021/12/27 10:11:46;;;;;;;8.75;7.68;;;6.70;99.90;;;;;;5020662;28;20270;-75
2021/12/27 10:14:15;;;;;;;9.32;7.60;;;6.60;99.90;;;;;;5016941;28;20617;-75
2021/12/27 10:16:46;;;;;;;8.32;7.53;;;6.90;99.90;;;;;;5018554;28;20224;-76
2021/12/27 10:19:16;;;;;;;7.90;6.32;;;7.20;99.90;;;;;;5016939;28;20196;-77
2021/12/27 10:21:45;;;;;;;9.00;8.10;;;7.50;99.90;;;;;;5018835;28;20265;-75
2021/12/27 10:24:14;;;;;;;8.18;7.45;;;7.40;99.90;;;;;;5019147;28;20208;-77
2021/12/27 10:26:43;;;;;;;8.75;7.85;;;7.10;99.90;;;;;;5012003;28;20315;-75
2021/12/27 10:29:14;;;;;;;8.10;7.40;;;6.90;99.90;;;;;;5011946;28;20196;-75
2021/12/27 10:32:04;;;;;;;7.25;6.55;;;6.70;99.90;;;;;;5014723;28;20517;-76
2021/12/27 10:34:32;;;;;;;11.05;7.15;;;6.50;99.90;;;;;;5013129;28;20196;-74
2021/12/27 10:37:05;;;;;;;7.15;6.45;;;6.40;99.90;;;;;;5008941;28;20273;-75
2021/12/27 10:39:43;;;;;;;6.63;6.03;;;6.40;99.90;;;;;;5014816;28;20250;-75
2021/12/27 10:42:13;;;;;;;6.30;5.70;;;6.40;99.90;;;;;;5011019;28;20319;-75
2021/12/27 10:44:40;;;;;;;5.93;5.25;;;6.40;99.90;;;;;;5014483;28;20550;-76
2021/12/27 10:47:26;;;;;;;6.15;5.65;;;6.40;99.90;;;;;;5017819;28;20766;-74
2021/12/27 10:49:53;;;;;;;6.38;5.88;;;6.40;99.90;;;;;;5017852;28;20219;-74
2021/12/27 10:52:39;;;;;;;6.20;5.70;;;6.30;99.90;;;;;;5016673;28;20197;-76
2021/12/27 10:55:06;;;;;;;6.50;5.90;;;6.30;99.90;;;;;;5014419;28;20283;-74
2021/12/27 10:57:34;;;;;;;6.55;5.95;;;6.30;99.90;;;;;;5020985;28;20693;-74
2021/12/27 11:00:23;;;;;;;6.72;5.97;;;6.30;99.90;;;;;;5026646;28;20200;-74
2021/12/27 11:02:51;;;;;;;6.38;5.88;;;6.20;99.90;;;;;;5017158;28;20202;-71
2021/12/27 11:05:21;;;;;;;7.45;6.80;;;6.30;99.90;;;;;;5016374;28;20234;-75
2021/12/27 11:07:49;;;;;;;7.28;6.50;;;6.30;99.90;;;;;;5016860;28;20303;-73
2021/12/27 11:10:16;;;;;;;9.98;8.60;;;6.40;99.90;;;;;;5019375;28;20210;-73
2021/12/27 11:12:44;;;;;;;11.23;9.52;;;6.50;99.90;;;;;;5019526;28;20207;-74
2021/12/27 11:15:12;;;;;;;10.48;9.30;;;6.50;99.90;;;;;;5017147;28;20231;-76
2021/12/27 11:17:40;;;;;;;9.40;8.50;;;6.50;99.90;;;;;;5013171;28;20259;-74
2021/12/27 11:20:09;;;;;;;10.00;9.00;;;6.50;99.90;;;;;;5020076;28;20200;-73
2021/12/27 11:22:38;;;;;;;10.90;9.38;;;6.60;99.90;;;;;;5017818;28;20239;-73
2021/12/27 11:25:08;;;;;;;12.18;10.75;;;6.70;99.90;;;;;;5014905;28;20751;-74
2021/12/27 11:27:37;;;;;;;10.73;9.63;;;6.80;99.90;;;;;;5019752;28;20192;-75
2021/12/27 11:30:12;;;;;;;11.57;10.10;;;6.80;99.90;;;;;;5018085;28;20558;-73
2021/12/27 11:33:04;;;;;;;11.43;10.07;;;6.80;99.90;;;;;;5014163;28;20282;-74
2021/12/27 11:35:34;;;;;;;10.20;8.00;;;6.70;99.90;;;;;;5017340;28;20211;-76
2021/12/27 11:38:02;;;;;;;9.05;8.15;;;6.60;99.90;;;;;;5012811;28;20212;-73
2021/12/27 11:40:42;;;;;;;8.23;7.53;;;6.50;99.90;;;;;;5019224;28;20284;-74
2021/12/27 11:43:09;;;;;;;8.43;7.63;;;6.40;99.90;;;;;;5015791;28;20206;-73
2021/12/27 11:45:46;;;;;;;9.23;8.18;;;6.40;99.90;;;;;;5022980;28;20224;-74
2021/12/27 11:48:14;;;;;;;7.72;7.00;;;6.50;99.90;;;;;;5015760;28;20295;-74
2021/12/27 11:51:05;;;;;;;9.57;7.95;;;6.50;99.90;;;;;;5014902;28;20196;-74
2021/12/27 11:53:35;;;;;;;8.25;7.43;;;6.50;99.90;;;;;;5023851;28;20473;-76
2021/12/27 11:56:08;;;;;;;8.95;7.95;;;6.50;99.90;;;;;;5021473;28;20595;-73
2021/12/27 11:58:37;;;;;;;8.10;7.40;;;6.40;99.90;;;;;;5015948;28;20354;-73
2021/12/27 12:01:06;;;;;;;10.27;7.57;;;6.40;99.90;;;;;;5015964;28;20196;-74
2021/12/27 12:03:42;;;;;;;7.35;6.70;;;6.60;99.90;;;;;;5013692;28;20200;-74
2021/12/27 12:06:41;;;;;;;8.15;7.38;;;6.80;99.90;;;;;;5016231;28;20305;-74
2021/12/27 12:09:11;;;;;;;8.57;7.68;;;6.80;99.90;;;;;;5012638;28;20633;-75
2021/12/27 12:11:40;;;;;;;8.65;7.88;;;6.80;99.90;;;;;;5017654;28;20196;-74
2021/12/27 12:14:26;;;;;;;9.57;8.68;;;6.80;99.90;;;;;;5015114;28;20623;-74
2021/12/27 12:16:53;;;;;;;8.57;7.68;;;6.80;99.90;;;;;;5017884;28;20566;-76
2021/12/27 12:19:36;;;;;;;10.05;9.15;;;6.70;99.90;;;;;;5013293;28;20573;-74
2021/12/27 12:22:04;;;;;;;9.27;8.45;;;6.90;99.90;;;;;;5018076;28;20215;-75
2021/12/27 12:24:31;;;;;;;10.70;9.70;;;7.00;99.90;;;;;;5016071;28;20195;-74
2021/12/27 12:27:02;;;;;;;9.23;8.35;;;7.20;99.90;;;;;;5017328;28;20215;-75
2021/12/27 12:29:36;;;;;;;8.10;7.30;;;7.20;99.90;;;;;;5014592;28;20235;-75
2021/12/27 12:32:06;;;;;;;7.20;6.60;;;7.40;99.90;;;;;;5020380;28;20211;-73
2021/12/27 12:34:37;;;;;;;7.07;6.38;;;7.60;99.90;;;;;;5017363;28;20199;-74
2021/12/27 12:37:07;;;;;;;6.47;5.97;;;7.80;99.90;;;;;;5016769;28;20200;-74
2021/12/27 12:39:38;;;;;;;5.88;5.32;;;8.10;99.90;;;;;;5014202;28;20211;-75
2021/12/27 12:42:09;;;;;;;6.75;6.15;;;8.20;99.90;;;;;;5016750;28;20694;-76
2021/12/27 12:44:47;;;;;;;7.25;6.63;;;8.20;99.90;;;;;;5014497;28;20710;-74
2021/12/27 12:47:14;;;;;;;6.55;5.95;;;8.10;99.90;;;;;;5017720;28;20286;-76
2021/12/27 12:49:41;;;;;;;8.50;6.32;;;8.10;99.90;;;;;;5015776;28;20273;-75
2021/12/27 12:52:09;;;;;;;7.82;7.13;;;8.10;99.90;;;;;;5016174;28;20230;-74
2021/12/27 12:54:39;;;;;;;7.30;6.70;;;8.10;99.90;;;;;;5012028;28;20860;-76
2021/12/27 12:57:09;;;;;;;6.88;6.05;;;8.10;99.90;;;;;;5022460;28;20687;-74
2021/12/27 12:59:37;;;;;;;9.07;8.25;;;8.00;99.90;;;;;;5021804;28;20192;-74
2021/12/27 13:02:07;;;;;;;8.55;7.78;;;8.00;99.90;;;;;;5020343;28;20855;-75
2021/12/27 13:04:42;;;;;;;10.88;8.95;;;8.00;99.90;;;;;;5017062;28;20315;-74